Andersonville, Tennessee
Current Conditions -  °F | °C
As of 6:53 AM on Sunday 25 Jan 2015 (Local Time) from KOQT Reporting Station
Clear Clear  
Wind Chill: 29°   Ceiling: Unl
Heat Index: 29°   Visibility: 10mi
Dew Point: 26°   Wind: 0mph
Humidity: 89%   Direction: NA
Pressure: 29.9"   Gusts: NA
Location:  36.2°N, 84.04°W
Report Text: KOQT 251153Z AUTO 00000KT 10SM CLR M02/M03 A2990 RMK AO2 SLP138 T10171033 11006 21017 58006
Loading
Personal Weather Stations






























Interactive Weather Map New forecast layout! Learn more

10-Day Weather Forecast

Advertisements
Track Severe Weather on mobile